createdAt,value
2023-05-14T04:00:38.673Z,60.79
2023-05-14T04:01:39.627Z,60.79
2023-05-14T04:02:39.823Z,60.79
2023-05-14T04:03:39.794Z,60.79
2023-05-14T04:04:39.669Z,60.69
2023-05-14T04:05:39.609Z,60.69
2023-05-14T04:06:39.592Z,60.59
2023-05-14T04:07:39.587Z,60.49
2023-05-14T04:08:39.580Z,60.49
2023-05-14T04:09:39.565Z,60.69
2023-05-14T04:10:39.559Z,60.79
2023-05-14T04:11:39.523Z,60.69
2023-05-14T04:12:39.527Z,60.79
2023-05-14T04:13:39.509Z,60.49
2023-05-14T04:14:39.507Z,60.38
2023-05-14T04:15:39.524Z,60.49
2023-05-14T04:16:39.506Z,60.49
2023-05-14T04:17:39.496Z,60.69
2023-05-14T04:18:39.506Z,60.72
2023-05-14T04:19:39.447Z,60.28
2023-05-14T04:20:39.461Z,60.41
2023-05-14T04:21:39.441Z,60.52
2023-05-14T04:22:39.421Z,60.52
2023-05-14T04:23:39.397Z,60.52
2023-05-14T04:24:39.420Z,60.52
2023-05-14T04:25:39.394Z,60.31
2023-05-14T04:26:39.375Z,60.41
2023-05-14T04:27:39.352Z,60.52
2023-05-14T04:28:39.348Z,60.31
2023-05-14T04:29:39.359Z,60.41
2023-05-14T04:30:39.324Z,60.41
2023-05-14T04:31:39.372Z,60.52
2023-05-14T04:32:39.402Z,60.21
2023-05-14T04:33:39.291Z,60.41
2023-05-14T04:34:39.292Z,60.21
2023-05-14T04:35:39.270Z,60.31
2023-05-14T04:36:39.250Z,60.41
2023-05-14T04:37:39.245Z,60.52
2023-05-14T04:38:39.231Z,60.31
2023-05-14T04:39:39.232Z,60.52
2023-05-14T04:40:39.217Z,60.31
2023-05-14T04:41:39.208Z,60.41
2023-05-14T04:42:39.191Z,60.41
2023-05-14T04:43:39.173Z,60.41
2023-05-14T04:44:39.182Z,60.11
2023-05-14T04:45:39.166Z,60.11
2023-05-14T04:46:39.251Z,60.31
2023-05-14T04:47:39.170Z,59.91
2023-05-14T04:48:39.116Z,59.88
2023-05-14T04:49:39.116Z,59.77
2023-05-14T04:50:39.118Z,60.08
2023-05-14T04:51:39.102Z,60.08
2023-05-14T04:52:39.100Z,59.98
2023-05-14T04:53:39.059Z,60.18
2023-05-14T04:54:39.123Z,59.57
2023-05-14T04:55:39.042Z,59.27
2023-05-14T04:56:39.050Z,59.16
2023-05-14T04:57:39.017Z,58.45
2023-05-14T04:58:39.032Z,58.25
2023-05-14T04:59:39.023Z,58.42
2023-05-14T05:00:38.991Z,58.02
2023-05-14T05:01:38.998Z,58.12
2023-05-14T05:02:39.011Z,58.02
2023-05-14T05:03:39.020Z,57.81
2023-05-14T05:04:38.958Z,57.71
2023-05-14T05:05:38.943Z,57.92
2023-05-14T05:06:38.932Z,57.31
2023-05-14T05:07:38.945Z,57.21
2023-05-14T05:08:38.937Z,57.21
2023-05-14T05:09:38.910Z,57.31
2023-05-14T05:10:38.923Z,57.21
2023-05-14T05:11:38.882Z,57.31
2023-05-14T05:12:38.873Z,57.00
2023-05-14T05:13:38.864Z,57.10
2023-05-14T05:14:38.869Z,57.51
2023-05-14T05:15:38.936Z,57.41
2023-05-14T05:16:38.829Z,57.51
2023-05-14T05:17:38.878Z,57.71
2023-05-14T05:18:38.852Z,57.81
2023-05-14T05:19:43.701Z,57.71
2023-05-14T05:20:38.800Z,57.92
2023-05-14T05:21:38.783Z,57.71
2023-05-14T05:22:38.759Z,57.81
2023-05-14T05:23:38.752Z,57.71
2023-05-14T05:24:38.805Z,58.22
2023-05-14T05:25:38.754Z,58.12
2023-05-14T05:26:38.723Z,58.42
2023-05-14T05:27:38.715Z,58.12
2023-05-14T05:28:38.717Z,58.25
2023-05-14T05:29:38.700Z,58.65
2023-05-14T05:30:38.681Z,58.83
2023-05-14T05:31:38.683Z,58.73
2023-05-14T05:32:38.685Z,58.63
2023-05-14T05:33:38.647Z,58.53
2023-05-14T05:34:38.651Z,58.73
2023-05-14T05:35:38.626Z,58.83
2023-05-14T05:36:38.630Z,58.63
2023-05-14T05:37:38.605Z,58.73
2023-05-14T05:38:38.606Z,58.83
2023-05-14T05:39:38.611Z,58.73
2023-05-14T05:40:38.570Z,58.40
2023-05-14T05:41:38.607Z,58.53
2023-05-14T05:42:38.555Z,58.50
2023-05-14T05:43:38.543Z,58.50
2023-05-14T05:44:38.530Z,58.09
2023-05-14T05:45:38.506Z,58.09
2023-05-14T05:46:38.536Z,58.20
2023-05-14T05:47:38.501Z,57.79
2023-05-14T05:48:38.493Z,57.68
2023-05-14T05:49:38.489Z,57.48
2023-05-14T05:50:38.465Z,57.25
2023-05-14T05:51:38.445Z,57.35
2023-05-14T05:52:38.441Z,57.56
2023-05-14T05:53:38.429Z,57.15
2023-05-14T05:54:38.415Z,56.95
2023-05-14T05:55:38.409Z,56.85
2023-05-14T05:56:38.405Z,56.85
2023-05-14T05:57:38.390Z,56.54
2023-05-14T05:58:38.377Z,56.74
2023-05-14T05:59:38.366Z,56.74
2023-05-14T06:00:38.368Z,56.65
2023-05-14T06:01:38.356Z,56.65
2023-05-14T06:02:38.481Z,56.92
2023-05-14T06:03:38.336Z,56.72
2023-05-14T06:04:38.317Z,56.11
2023-05-14T06:05:38.422Z,56.52
2023-05-14T06:06:38.297Z,56.41
2023-05-14T06:07:38.298Z,56.21
2023-05-14T06:08:38.289Z,55.68
2023-05-14T06:09:38.274Z,55.88
2023-05-14T06:10:38.257Z,55.78
2023-05-14T06:11:38.224Z,55.45
2023-05-14T06:12:38.233Z,55.35
2023-05-14T06:13:38.224Z,54.84
2023-05-14T06:14:38.195Z,55.25
2023-05-14T06:15:38.206Z,55.15
2023-05-14T06:16:38.249Z,55.04
2023-05-14T06:17:38.221Z,54.94
2023-05-14T06:18:38.218Z,54.94
2023-05-14T06:19:38.166Z,54.61
2023-05-14T06:20:38.142Z,54.44
2023-05-14T06:21:38.115Z,54.51
2023-05-14T06:22:38.121Z,54.71
2023-05-14T06:23:38.106Z,54.82
2023-05-14T06:24:38.104Z,54.82
2023-05-14T06:25:38.067Z,54.31
2023-05-14T06:26:38.071Z,54.21
2023-05-14T06:27:38.054Z,54.71
2023-05-14T06:28:38.094Z,53.91
2023-05-14T06:29:38.029Z,54.11
2023-05-14T06:30:38.042Z,54.38
2023-05-14T06:31:38.053Z,53.67
2023-05-14T06:32:38.024Z,53.37
2023-05-14T06:33:38.011Z,53.78
2023-05-14T06:34:38.020Z,53.37
2023-05-14T06:35:37.996Z,53.67
2023-05-14T06:36:37.973Z,53.65
2023-05-14T06:37:37.945Z,53.25
2023-05-14T06:38:37.951Z,53.05
2023-05-14T06:39:37.916Z,53.05
2023-05-14T06:40:37.927Z,52.64
2023-05-14T06:41:37.944Z,52.44
2023-05-14T06:42:37.898Z,52.74
2023-05-14T06:43:37.908Z,52.84
2023-05-14T06:44:37.881Z,52.21
2023-05-14T06:45:37.867Z,52.61
2023-05-14T06:46:37.864Z,52.21
2023-05-14T06:47:37.856Z,52.72
2023-05-14T06:48:37.890Z,52.72
2023-05-14T06:49:37.811Z,52.41
2023-05-14T06:50:37.810Z,52.31
2023-05-14T06:51:37.794Z,52.08
2023-05-14T06:52:37.767Z,52.08
2023-05-14T06:53:37.775Z,52.39
2023-05-14T06:54:37.787Z,52.48
2023-05-14T06:55:37.788Z,51.78
2023-05-14T06:56:37.757Z,52.28
2023-05-14T06:57:40.481Z,52.59
2023-05-14T06:58:37.709Z,51.65
2023-05-14T06:59:37.713Z,51.96
2023-05-14T07:00:37.716Z,52.36
2023-05-14T07:01:37.739Z,51.76
2023-05-14T07:02:37.719Z,51.86
2023-05-14T07:03:37.711Z,52.16
2023-05-14T07:04:37.715Z,51.93
2023-05-14T07:05:37.673Z,51.73
2023-05-14T07:06:37.636Z,51.32
2023-05-14T07:07:37.659Z,50.49
2023-05-14T07:08:37.618Z,50.49
2023-05-14T07:09:37.642Z,50.29
2023-05-14T07:10:37.640Z,49.48
2023-05-14T07:11:37.589Z,49.81
2023-05-14T07:12:37.609Z,50.42
2023-05-14T07:13:37.572Z,50.82
2023-05-14T07:14:37.566Z,50.39
2023-05-14T07:15:37.561Z,50.80
2023-05-14T07:16:37.592Z,50.49
2023-05-14T07:17:37.521Z,50.19
2023-05-14T07:18:37.528Z,49.38
2023-05-14T07:19:37.490Z,50.09
2023-05-14T07:20:37.538Z,50.49
2023-05-14T07:21:37.464Z,49.56
2023-05-14T07:22:37.486Z,50.07
2023-05-14T07:23:37.433Z,49.87
2023-05-14T07:24:37.433Z,49.05
2023-05-14T07:25:37.437Z,48.96
2023-05-14T07:26:37.438Z,48.85
2023-05-14T07:27:37.415Z,48.33
2023-05-14T07:28:37.402Z,48.22
2023-05-14T07:29:37.370Z,48.43
2023-05-14T07:30:37.380Z,48.63
2023-05-14T07:31:37.436Z,48.22
2023-05-14T07:32:37.367Z,47.90
2023-05-14T07:33:37.356Z,47.52
2023-05-14T07:34:37.354Z,46.81
2023-05-14T07:35:37.328Z,47.12
2023-05-14T07:36:37.398Z,47.22
2023-05-14T07:37:37.305Z,47.62
2023-05-14T07:38:37.314Z,46.92
2023-05-14T07:39:37.261Z,47.22
2023-05-14T07:40:37.265Z,47.09
2023-05-14T07:41:37.256Z,46.89
2023-05-14T07:42:37.609Z,46.79
2023-05-14T07:43:37.225Z,46.79
2023-05-14T07:44:37.354Z,46.99
2023-05-14T07:45:37.305Z,47.17
2023-05-14T07:46:37.217Z,46.97
2023-05-14T07:47:37.272Z,45.86
2023-05-14T07:48:37.194Z,45.76
2023-05-14T07:49:37.204Z,45.26
2023-05-14T07:50:37.178Z,45.16
2023-05-14T07:51:37.142Z,44.93
2023-05-14T07:52:37.132Z,45.14
2023-05-14T07:53:37.151Z,44.63
2023-05-14T07:54:37.225Z,44.92
2023-05-14T07:55:37.186Z,44.59
2023-05-14T07:56:37.121Z,44.49
2023-05-14T07:57:37.137Z,43.59
2023-05-14T07:58:37.077Z,42.58
2023-05-14T07:59:37.065Z,43.18
2023-05-14T08:00:37.114Z,43.79
2023-05-14T08:01:39.150Z,44.01
2023-05-14T08:02:37.098Z,43.99
2023-05-14T08:03:37.163Z,44.29
2023-05-14T08:04:37.042Z,44.29
2023-05-14T08:05:37.035Z,44.09
2023-05-14T08:06:37.016Z,44.09
2023-05-14T08:07:37.017Z,43.59
2023-05-14T08:08:37.017Z,44.59
2023-05-14T08:09:36.970Z,44.29
2023-05-14T08:10:37.002Z,44.67
2023-05-14T08:11:36.939Z,45.07
2023-05-14T08:12:36.961Z,43.87
2023-05-14T08:13:36.925Z,43.24
2023-05-14T08:14:36.926Z,43.42
2023-05-14T08:15:36.891Z,43.62
2023-05-14T08:16:36.921Z,43.62
2023-05-14T08:17:36.989Z,43.50
2023-05-14T08:18:36.858Z,43.50
2023-05-14T08:19:36.841Z,42.40
2023-05-14T08:20:36.856Z,42.49
2023-05-14T08:21:36.836Z,42.07
2023-05-14T08:22:36.833Z,41.57
2023-05-14T08:23:36.785Z,41.25
2023-05-14T08:24:36.781Z,41.03
2023-05-14T08:25:36.785Z,41.03
2023-05-14T08:26:36.801Z,39.93
2023-05-14T08:27:36.763Z,38.62
2023-05-14T08:28:36.731Z,39.03
2023-05-14T08:29:36.809Z,38.62
2023-05-14T08:30:36.800Z,38.60
2023-05-14T08:31:36.769Z,37.90
2023-05-14T08:32:36.828Z,37.82
2023-05-14T08:33:36.695Z,38.02
2023-05-14T08:34:36.690Z,38.64
2023-05-14T08:35:36.693Z,39.47
2023-05-14T08:36:36.656Z,39.36
2023-05-14T08:37:36.641Z,39.47
2023-05-14T08:38:36.644Z,39.14
2023-05-14T08:39:36.623Z,39.54
2023-05-14T08:40:36.616Z,39.84
2023-05-14T08:41:36.603Z,39.23
2023-05-14T08:42:36.587Z,39.32
2023-05-14T08:43:36.589Z,39.32
2023-05-14T08:44:36.562Z,39.32
2023-05-14T08:45:36.559Z,39.23
2023-05-14T08:46:36.537Z,39.32
2023-05-14T08:47:36.543Z,39.53
2023-05-14T08:48:36.544Z,39.71
2023-05-14T08:49:36.510Z,39.25
2023-05-14T08:50:36.504Z,39.93
2023-05-14T08:51:36.502Z,38.32
2023-05-14T08:52:36.485Z,38.60
2023-05-14T08:53:36.472Z,38.10
2023-05-14T08:54:36.458Z,38.02
2023-05-14T08:55:36.449Z,38.42
2023-05-14T08:56:36.447Z,38.53
2023-05-14T08:57:36.424Z,38.53
2023-05-14T08:58:36.401Z,38.74
2023-05-14T08:59:36.402Z,39.04
2023-05-14T09:00:36.386Z,38.64
2023-05-14T09:01:36.422Z,39.25
2023-05-14T09:02:36.379Z,38.64
2023-05-14T09:03:36.374Z,38.64
2023-05-14T09:04:36.342Z,37.62
2023-05-14T09:05:36.379Z,37.44
2023-05-14T09:06:36.373Z,38.14
2023-05-14T09:07:36.348Z,38.42
2023-05-14T09:08:36.322Z,38.02
2023-05-14T09:09:36.318Z,37.90
2023-05-14T09:10:36.280Z,36.78
2023-05-14T09:11:36.361Z,36.68
2023-05-14T09:12:36.258Z,36.76
2023-05-14T09:13:36.251Z,37.28
2023-05-14T09:14:36.234Z,37.07
2023-05-14T09:15:36.289Z,37.27
2023-05-14T09:16:36.260Z,36.55
2023-05-14T09:17:36.233Z,36.53
2023-05-14T09:18:36.281Z,36.91
2023-05-14T09:19:36.215Z,35.99
2023-05-14T09:20:36.159Z,35.99
2023-05-14T09:21:36.186Z,35.68
2023-05-14T09:22:36.174Z,34.46
2023-05-14T09:23:36.148Z,34.59
2023-05-14T09:24:36.129Z,35.78
2023-05-14T09:25:36.136Z,34.88
2023-05-14T09:26:36.134Z,35.06
2023-05-14T09:27:36.091Z,34.46
2023-05-14T09:28:36.102Z,34.66
2023-05-14T09:29:36.060Z,35.58
2023-05-14T09:30:36.097Z,33.98
2023-05-14T09:31:36.141Z,35.10
2023-05-14T09:32:36.084Z,35.51
2023-05-14T09:33:36.144Z,36.03
2023-05-14T09:34:36.013Z,36.15
2023-05-14T09:35:36.022Z,36.85
2023-05-14T09:36:36.875Z,36.26
2023-05-14T09:37:36.047Z,36.46
2023-05-14T09:38:36.023Z,36.57
2023-05-14T09:39:35.969Z,36.25
2023-05-14T09:40:35.990Z,34.74
2023-05-14T09:41:35.964Z,34.73
2023-05-14T09:42:35.925Z,35.23
2023-05-14T09:43:35.929Z,34.51
2023-05-14T09:44:35.911Z,34.01
2023-05-14T09:45:35.898Z,33.71
2023-05-14T09:46:35.906Z,34.01
2023-05-14T09:47:35.919Z,34.50
2023-05-14T09:48:35.936Z,33.70
2023-05-14T09:49:35.858Z,34.08
2023-05-14T09:50:35.857Z,33.58
2023-05-14T09:51:35.831Z,33.50
2023-05-14T09:52:35.826Z,32.98
2023-05-14T09:53:35.804Z,32.28
2023-05-14T09:54:35.796Z,33.00
2023-05-14T09:55:35.795Z,33.41
2023-05-14T09:56:35.782Z,33.62
2023-05-14T09:57:35.779Z,34.05
2023-05-14T09:58:35.750Z,34.44
2023-05-14T09:59:35.750Z,34.94
2023-05-14T10:00:35.746Z,34.74
2023-05-14T10:01:35.846Z,35.26
2023-05-14T10:02:35.737Z,35.36
2023-05-14T10:03:35.700Z,35.56
2023-05-14T10:04:35.768Z,35.26
2023-05-14T10:05:35.682Z,34.46
2023-05-14T10:06:35.666Z,34.96
2023-05-14T10:07:35.648Z,35.28
2023-05-14T10:08:35.647Z,35.48
2023-05-14T10:09:35.626Z,35.68
2023-05-14T10:10:35.636Z,35.89
2023-05-14T10:11:35.633Z,35.50
2023-05-14T10:12:35.646Z,36.21
2023-05-14T10:13:35.589Z,36.00
2023-05-14T10:14:35.597Z,36.10
2023-05-14T10:15:35.563Z,35.39
2023-05-14T10:16:35.657Z,35.58
2023-05-14T10:17:35.569Z,35.18
2023-05-14T10:18:35.631Z,35.50
2023-05-14T10:19:35.539Z,35.69
2023-05-14T10:20:35.568Z,35.89
2023-05-14T10:21:35.513Z,35.89
2023-05-14T10:22:35.497Z,36.20
2023-05-14T10:23:35.485Z,36.50
2023-05-14T10:24:35.470Z,36.80
2023-05-14T10:25:35.481Z,36.60
2023-05-14T10:26:35.439Z,36.00
2023-05-14T10:27:35.452Z,36.70
2023-05-14T10:28:35.435Z,36.52
2023-05-14T10:29:35.423Z,36.60
2023-05-14T10:30:35.425Z,36.80
2023-05-14T10:31:35.493Z,36.41
2023-05-14T10:32:35.442Z,36.70
2023-05-14T10:33:35.374Z,36.80
2023-05-14T10:34:35.376Z,36.60
2023-05-14T10:35:35.377Z,36.50
2023-05-14T10:36:35.346Z,36.60
2023-05-14T10:37:35.345Z,36.60
2023-05-14T10:38:35.317Z,37.10
2023-05-14T10:39:35.314Z,36.92
2023-05-14T10:40:35.309Z,36.61
2023-05-14T10:41:35.295Z,36.72
2023-05-14T10:42:35.322Z,37.12
2023-05-14T10:43:35.302Z,36.82
2023-05-14T10:44:35.247Z,36.92
2023-05-14T10:45:35.275Z,37.12
2023-05-14T10:46:35.277Z,37.44
2023-05-14T10:47:35.260Z,37.84
2023-05-14T10:48:35.211Z,37.62
2023-05-14T10:49:42.986Z,37.82
2023-05-14T10:50:35.194Z,37.42
2023-05-14T10:51:35.287Z,37.42
2023-05-14T10:52:35.184Z,37.42
2023-05-14T10:53:36.267Z,37.10
2023-05-14T10:54:36.982Z,36.30
2023-05-14T10:55:35.412Z,36.02
2023-05-14T10:56:35.790Z,36.21
2023-05-14T10:57:35.777Z,36.11
2023-05-14T10:58:36.759Z,35.71
2023-05-14T10:59:35.584Z,36.11
2023-05-14T11:00:35.077Z,36.02
2023-05-14T11:01:35.113Z,35.83
2023-05-14T11:02:35.108Z,35.93
2023-05-14T11:03:35.070Z,36.03
2023-05-14T11:04:35.057Z,36.43
2023-05-14T11:05:35.054Z,36.02
2023-05-14T11:06:35.014Z,36.21
2023-05-14T11:07:35.037Z,35.93
2023-05-14T11:08:35.012Z,36.11
2023-05-14T11:09:35.139Z,36.41
2023-05-14T11:10:34.976Z,36.02
2023-05-14T11:11:34.955Z,36.41
2023-05-14T11:12:34.955Z,36.02
2023-05-14T11:13:34.930Z,36.21
2023-05-14T11:14:34.919Z,36.11
2023-05-14T11:15:34.921Z,36.02
2023-05-14T11:16:34.951Z,36.21
2023-05-14T11:17:35.022Z,36.63
2023-05-14T11:18:34.891Z,36.54
2023-05-14T11:19:34.879Z,36.72
2023-05-14T11:20:34.878Z,36.54
2023-05-14T11:21:34.909Z,36.73
2023-05-14T11:22:34.838Z,36.93
2023-05-14T11:23:34.830Z,37.24
2023-05-14T11:24:34.811Z,37.13
2023-05-14T11:25:34.817Z,37.44
2023-05-14T11:26:34.839Z,37.74
2023-05-14T11:27:34.803Z,38.24
2023-05-14T11:28:34.758Z,38.84
2023-05-14T11:29:34.759Z,37.84
2023-05-14T11:30:34.744Z,38.34
2023-05-14T11:31:34.806Z,38.54
2023-05-14T11:32:34.815Z,38.34
2023-05-14T11:33:34.715Z,38.24
2023-05-14T11:34:34.700Z,38.34
2023-05-14T11:35:34.707Z,38.14
2023-05-14T11:36:34.670Z,38.12
2023-05-14T11:37:34.690Z,38.12
2023-05-14T11:38:34.653Z,38.12
2023-05-14T11:39:34.645Z,37.42
2023-05-14T11:40:34.633Z,37.62
2023-05-14T11:41:34.645Z,37.82
2023-05-14T11:42:34.611Z,38.22
2023-05-14T11:43:34.631Z,37.70
2023-05-14T11:44:34.590Z,38.10
2023-05-14T11:45:34.577Z,37.60
2023-05-14T11:46:34.713Z,37.79
2023-05-14T11:47:34.601Z,37.30
2023-05-14T11:48:34.548Z,37.00
2023-05-14T11:49:34.812Z,37.40
2023-05-14T11:50:34.534Z,37.40
2023-05-14T11:51:34.520Z,37.80
2023-05-14T11:52:34.516Z,37.92
2023-05-14T11:53:34.510Z,38.02
2023-05-14T11:54:34.732Z,38.42
2023-05-14T11:55:34.475Z,38.32
2023-05-14T11:56:34.481Z,38.92
2023-05-14T11:57:34.444Z,38.92
2023-05-14T11:58:34.425Z,39.32
2023-05-14T11:59:34.417Z,39.23
2023-05-14T12:00:34.485Z,39.12
2023-05-14T12:01:34.398Z,39.23
2023-05-14T12:02:34.515Z,39.32
2023-05-14T12:03:34.911Z,38.90
2023-05-14T12:04:34.405Z,38.90
2023-05-14T12:05:34.351Z,39.01
2023-05-14T12:06:34.362Z,38.40
2023-05-14T12:07:34.351Z,38.70
2023-05-14T12:08:34.330Z,38.60
2023-05-14T12:09:34.318Z,38.70
2023-05-14T12:10:34.294Z,38.40
2023-05-14T12:11:34.303Z,38.10
2023-05-14T12:12:34.285Z,38.20
2023-05-14T12:13:34.269Z,38.10
2023-05-14T12:14:34.259Z,38.10
2023-05-14T12:15:34.255Z,38.10
2023-05-14T12:16:36.861Z,38.00
2023-05-14T12:17:34.865Z,38.00
2023-05-14T12:18:34.331Z,38.10
2023-05-14T12:19:34.225Z,38.53
2023-05-14T12:20:34.258Z,38.81
2023-05-14T12:21:34.168Z,38.81
2023-05-14T12:22:35.740Z,38.81
2023-05-14T12:23:34.260Z,39.01
2023-05-14T12:24:34.201Z,38.81
2023-05-14T12:25:34.218Z,38.09
2023-05-14T12:26:34.260Z,38.39
2023-05-14T12:27:34.153Z,38.17
2023-05-14T12:28:36.914Z,37.87
2023-05-14T12:29:34.137Z,37.57
2023-05-14T12:30:34.111Z,37.45
2023-05-14T12:31:34.100Z,37.85
2023-05-14T12:32:34.156Z,37.11
2023-05-14T12:33:34.063Z,36.51
2023-05-14T12:34:36.560Z,36.71
2023-05-14T12:35:34.019Z,36.31
2023-05-14T12:36:34.078Z,36.29
2023-05-14T12:37:34.018Z,35.69
2023-05-14T12:38:34.030Z,34.61
2023-05-14T12:39:34.015Z,35.11
2023-05-14T12:40:33.999Z,35.11
2023-05-14T12:41:33.961Z,34.83
2023-05-14T12:42:33.989Z,35.33
2023-05-14T12:43:33.952Z,35.33
2023-05-14T12:44:33.958Z,35.55
2023-05-14T12:45:33.912Z,35.93
2023-05-14T12:46:33.957Z,35.73
2023-05-14T12:47:33.894Z,35.43
2023-05-14T12:48:33.900Z,35.73
2023-05-14T12:49:33.905Z,36.23
2023-05-14T12:50:33.902Z,36.13
2023-05-14T12:51:33.857Z,35.93
2023-05-14T12:52:38.590Z,36.23
2023-05-14T12:53:33.850Z,35.73
2023-05-14T12:54:33.818Z,35.73
2023-05-14T12:55:33.821Z,35.83
2023-05-14T12:56:33.812Z,36.43
2023-05-14T12:57:33.781Z,35.63
2023-05-14T12:58:33.790Z,35.61
2023-05-14T12:59:33.805Z,35.91
2023-05-14T13:00:33.768Z,35.41
2023-05-14T13:01:33.811Z,35.63
2023-05-14T13:02:33.759Z,35.64
2023-05-14T13:03:33.723Z,35.96
2023-05-14T13:04:33.765Z,36.26
2023-05-14T13:05:33.695Z,36.46
2023-05-14T13:06:33.725Z,37.18
2023-05-14T13:07:33.687Z,37.28
2023-05-14T13:08:33.682Z,37.28
2023-05-14T13:09:33.673Z,36.98
2023-05-14T13:10:33.659Z,36.36
2023-05-14T13:11:33.680Z,36.18
2023-05-14T13:12:33.642Z,36.38
2023-05-14T13:13:33.619Z,36.48
2023-05-14T13:14:33.600Z,36.58
2023-05-14T13:15:33.597Z,36.18
2023-05-14T13:16:33.654Z,35.88
2023-05-14T13:17:33.638Z,35.98
2023-05-14T13:18:33.654Z,35.78
2023-05-14T13:19:33.563Z,35.88
2023-05-14T13:20:33.538Z,35.88
2023-05-14T13:21:33.544Z,35.88
2023-05-14T13:22:33.523Z,35.68
2023-05-14T13:23:33.529Z,36.28
2023-05-14T13:24:33.486Z,35.38
2023-05-14T13:25:33.490Z,35.48
2023-05-14T13:26:33.497Z,35.98
2023-05-14T13:27:33.479Z,36.48
2023-05-14T13:28:33.463Z,35.88
2023-05-14T13:29:33.481Z,35.08
2023-05-14T13:30:33.440Z,35.18
2023-05-14T13:31:33.468Z,34.96
2023-05-14T13:32:33.478Z,35.06
2023-05-14T13:33:33.420Z,35.26
2023-05-14T13:34:33.405Z,34.86
2023-05-14T13:35:33.382Z,34.76
2023-05-14T13:36:33.419Z,34.96
2023-05-14T13:37:33.374Z,34.94
2023-05-14T13:38:33.345Z,34.44
2023-05-14T13:39:33.337Z,34.64
2023-05-14T13:40:33.357Z,34.14
2023-05-14T13:41:33.321Z,34.44
2023-05-14T13:42:33.302Z,34.46
2023-05-14T13:43:33.305Z,34.66
2023-05-14T13:44:33.288Z,35.26
2023-05-14T13:45:33.271Z,35.28
2023-05-14T13:46:33.368Z,34.58
2023-05-14T13:47:33.296Z,35.08
2023-05-14T13:48:33.245Z,35.39
2023-05-14T13:49:33.217Z,35.89
2023-05-14T13:50:33.216Z,36.10
2023-05-14T13:51:33.210Z,35.69
2023-05-14T13:52:33.221Z,35.89
2023-05-14T13:53:33.181Z,35.60
2023-05-14T13:54:33.177Z,35.89
2023-05-14T13:55:33.161Z,35.69
2023-05-14T13:56:33.189Z,35.82
2023-05-14T13:57:33.135Z,35.31
2023-05-14T13:58:33.123Z,35.61
2023-05-14T13:59:33.133Z,35.91
2023-05-14T14:00:33.114Z,36.02
2023-05-14T14:01:33.189Z,36.11
2023-05-14T14:02:34.249Z,36.10
2023-05-14T14:03:33.102Z,36.21
2023-05-14T14:04:33.069Z,36.11
2023-05-14T14:05:33.092Z,36.00
2023-05-14T14:06:33.048Z,36.30
2023-05-14T14:07:33.065Z,35.39
2023-05-14T14:08:33.029Z,35.10
2023-05-14T14:09:33.013Z,35.41
2023-05-14T14:10:33.000Z,35.31
2023-05-14T14:11:33.010Z,35.71
2023-05-14T14:12:33.026Z,35.60
2023-05-14T14:13:32.977Z,35.89
2023-05-14T14:14:32.968Z,35.30
2023-05-14T14:15:32.967Z,35.41
2023-05-14T14:16:32.981Z,35.41
2023-05-14T14:17:32.965Z,35.41
2023-05-14T14:18:32.973Z,36.32
2023-05-14T14:19:32.920Z,36.11
2023-05-14T14:20:32.903Z,34.71
2023-05-14T14:21:32.887Z,34.59
2023-05-14T14:22:32.873Z,34.61
2023-05-14T14:23:32.863Z,34.99
2023-05-14T14:24:32.867Z,35.10
2023-05-14T14:25:32.837Z,34.49
2023-05-14T14:26:32.839Z,34.89
2023-05-14T14:27:32.823Z,34.80
2023-05-14T14:28:32.823Z,34.89
2023-05-14T14:29:32.776Z,34.80
2023-05-14T14:30:32.807Z,34.80
2023-05-14T14:31:32.835Z,35.19
2023-05-14T14:32:32.774Z,35.50
2023-05-14T14:33:32.739Z,34.80
2023-05-14T14:34:32.760Z,34.49
2023-05-14T14:35:32.785Z,34.49
2023-05-14T14:36:32.747Z,34.59
2023-05-14T14:37:32.705Z,34.59
2023-05-14T14:38:32.741Z,34.29
2023-05-14T14:39:32.692Z,34.80
2023-05-14T14:40:32.665Z,34.69
2023-05-14T14:41:32.707Z,34.29
2023-05-14T14:42:32.678Z,34.08
2023-05-14T14:43:32.650Z,34.28
2023-05-14T14:44:32.634Z,34.28
2023-05-14T14:45:32.630Z,35.18
2023-05-14T14:46:32.745Z,34.98
2023-05-14T14:47:32.669Z,34.36
2023-05-14T14:48:32.582Z,34.76
2023-05-14T14:49:32.586Z,34.86
2023-05-14T14:50:32.551Z,34.34
2023-05-14T14:51:32.550Z,34.44
2023-05-14T14:52:32.551Z,34.55
2023-05-14T14:53:32.526Z,33.93
2023-05-14T14:54:32.531Z,33.93
2023-05-14T14:55:32.509Z,33.93
2023-05-14T14:56:32.505Z,33.62
2023-05-14T14:57:32.508Z,33.23
2023-05-14T14:58:32.494Z,33.41
2023-05-14T14:59:32.467Z,33.71
2023-05-14T15:00:32.465Z,32.61
2023-05-14T15:01:32.485Z,32.32
2023-05-14T15:02:32.464Z,32.23
2023-05-14T15:03:32.617Z,32.71
2023-05-14T15:04:32.418Z,32.21
2023-05-14T15:05:32.405Z,31.71
2023-05-14T15:06:32.385Z,31.91
2023-05-14T15:07:32.405Z,31.40
2023-05-14T15:08:32.376Z,31.38
2023-05-14T15:09:32.358Z,31.16
2023-05-14T15:10:32.364Z,30.95
2023-05-14T15:11:32.340Z,30.54
2023-05-14T15:12:32.370Z,30.32
2023-05-14T15:13:32.325Z,30.41
2023-05-14T15:14:32.313Z,29.71
2023-05-14T15:15:32.291Z,29.82
2023-05-14T15:16:32.328Z,30.32
2023-05-14T15:17:32.323Z,30.12
2023-05-14T15:18:32.320Z,30.14
2023-05-14T15:19:32.243Z,31.16
2023-05-14T15:20:32.247Z,31.08
2023-05-14T15:21:32.234Z,31.49
2023-05-14T15:22:32.241Z,32.31
2023-05-14T15:23:32.244Z,32.01
2023-05-14T15:24:32.240Z,31.48
2023-05-14T15:25:32.239Z,31.05
2023-05-14T15:26:32.191Z,30.63
2023-05-14T15:27:32.289Z,30.44
2023-05-14T15:28:32.181Z,30.65
2023-05-14T15:29:32.200Z,30.22
2023-05-14T15:30:32.214Z,30.42
2023-05-14T15:31:32.241Z,30.54
2023-05-14T15:32:32.226Z,30.85
2023-05-14T15:33:32.150Z,31.04
2023-05-14T15:34:32.185Z,30.11
2023-05-14T15:35:32.083Z,29.58
2023-05-14T15:36:32.255Z,28.55
2023-05-14T15:37:32.110Z,27.24
2023-05-14T15:38:32.167Z,27.83
2023-05-14T15:39:32.089Z,27.95
2023-05-14T15:40:32.094Z,28.03
2023-05-14T15:41:32.071Z,27.51
2023-05-14T15:42:32.023Z,26.68
2023-05-14T15:43:31.994Z,26.14
2023-05-14T15:44:31.983Z,26.15
2023-05-14T15:45:31.985Z,26.38
2023-05-14T15:46:32.031Z,27.10
2023-05-14T15:47:31.974Z,27.82
2023-05-14T15:48:31.966Z,28.46
2023-05-14T15:49:31.929Z,29.37
2023-05-14T15:50:31.934Z,30.19
2023-05-14T15:51:31.922Z,30.71
2023-05-14T15:52:31.928Z,31.13
2023-05-14T15:53:31.882Z,32.06
2023-05-14T15:54:31.918Z,32.06
2023-05-14T15:55:31.868Z,31.76
2023-05-14T15:56:31.855Z,31.98
2023-05-14T15:57:31.884Z,32.40
2023-05-14T15:58:31.872Z,33.00
2023-05-14T15:59:31.874Z,33.01
2023-05-14T16:00:31.852Z,33.31
2023-05-14T16:01:31.882Z,33.62
2023-05-14T16:02:31.869Z,33.83
2023-05-14T16:03:31.915Z,33.74
2023-05-14T16:04:31.855Z,34.14
2023-05-14T16:05:31.811Z,34.56
2023-05-14T16:06:31.770Z,34.96
2023-05-14T16:07:31.798Z,34.96
2023-05-14T16:08:31.759Z,35.16
2023-05-14T16:09:31.827Z,35.18
2023-05-14T16:10:31.750Z,35.28
2023-05-14T16:11:31.788Z,35.38
2023-05-14T16:12:31.710Z,35.78
2023-05-14T16:13:31.691Z,35.38
2023-05-14T16:14:31.679Z,35.48
2023-05-14T16:15:31.681Z,35.88
2023-05-14T16:16:31.691Z,36.18
2023-05-14T16:17:31.670Z,35.88
2023-05-14T16:18:31.700Z,35.35
2023-05-14T16:19:31.605Z,34.61
2023-05-14T16:20:31.672Z,33.18
2023-05-14T16:21:31.662Z,32.56
2023-05-14T16:22:31.611Z,32.55
2023-05-14T16:23:32.055Z,32.15
2023-05-14T16:24:31.625Z,32.03
2023-05-14T16:25:31.682Z,32.15
2023-05-14T16:26:31.578Z,32.65
2023-05-14T16:27:31.540Z,32.75
2023-05-14T16:28:31.534Z,32.56
2023-05-14T16:29:31.526Z,32.67
2023-05-14T16:30:31.514Z,32.76
2023-05-14T16:31:31.538Z,32.86
2023-05-14T16:32:31.480Z,32.56
2023-05-14T16:33:31.483Z,33.28
2023-05-14T16:34:31.471Z,33.58
2023-05-14T16:35:31.448Z,34.30
2023-05-14T16:36:31.409Z,33.80
2023-05-14T16:37:31.394Z,34.09
2023-05-14T16:38:31.390Z,34.01
2023-05-14T16:39:31.418Z,33.91
2023-05-14T16:40:31.374Z,33.91
2023-05-14T16:41:31.369Z,33.91
2023-05-14T16:42:31.341Z,34.01
2023-05-14T16:43:31.367Z,34.12
2023-05-14T16:44:31.326Z,34.53
2023-05-14T16:45:31.320Z,34.84
2023-05-14T16:46:31.424Z,35.14
2023-05-14T16:47:31.329Z,35.35
2023-05-14T16:48:31.300Z,35.46
2023-05-14T16:49:31.319Z,35.06
2023-05-14T16:50:31.299Z,35.28
2023-05-14T16:51:31.326Z,35.58
2023-05-14T16:52:31.999Z,35.68